Winchester, ID

12:27 PM PST on December 19, 2014 (GMT -0800)
ITD Winchester ID US | Change Station
CLOSE
Current Station
Personal Weather Station
Location: ,
Elevation: 3761 ft
Nearby Weather Stations

Elev 3761 ft 46.26 °N, 116.61 °W | Updated 58 minutes ago

Rain
Rain
37 °F
Feels Like 37 °F
N
2
Wind Variable Wind from North
Gusts 5.0 mph

Today
High -- | Low -- °F
--% Chance of Precip.
Yesterday
High -- | Low -- °F
Precip. -- in
7:25 AM 4:02 PM
Waning Crescent, 6% visible
Pressure 29.93 in
Visibility 10.0 miles
Clouds Scattered Clouds 5500 ft
Mostly Cloudy 8000 ft
Overcast 9500 ft
Windchill 37 °F
Dew Point 36 °F
Humidity 93%
Rainfall 0.00 in
Snow Depth Not available.
UV 1 out of 12
Pollen .10 out of 12
Air Quality Not available.
Flu Activity Not available.
METAR KGIC 192015Z AUTO 19019G29KT 10SM SCT055 BKN080 OVC095 05/01 A2993 RMK AO1 T00540008

More Conditions Fewer Conditions

Pressure 29.93 in
Visibility 10.0 miles
Clouds Scattered Clouds 5500 ft
Mostly Cloudy 8000 ft
Overcast 9500 ft
Windchill 37 °F
Dew Point 36 °F
Humidity 93%
Rainfall 0.00 in
Snow Depth Not available.
UV 1 out of 12
Pollen .10 out of 12
Air Quality Not available.
Flu Activity Not available.
METAR KGIC 192015Z AUTO 19019G29KT 10SM SCT055 BKN080 OVC095 05/01 A2993 RMK AO1 T00540008

More Conditions Fewer Conditions

10-Day Weather Forecast

Almanac

Astronomy

Dec. 19, 2014 Rise Set
Actual Time
Civil Twilight
Nautical Twilight
Astronomical Twilight
Moon
Length of Visible Light
Length of Day
Tomorrow will be .
, % of the Moon is Illuminated

Today's Extremes

State Highs State Lows

Community

WunderPhotos

Upload Photos

1,779,047 photos uploaded!

WunderBlogs® & News

Nearby

Air Quality

  Air Quality AQ Index Pollutant
Not available.

Snow Depth

Station Depth Elevation

Earthquake Activity

City Distance Mag. Time & Date
Minimum magnitude displayed is 2.5.

Coastal Water Temperatures

Place Temperature

Nearby Weather Stations